Abilene/Dyess AFB, Texas
Current Conditions -  °F | °C
As of 11:58 PM on Friday 28 Nov 2014 (Local Time) from KDYS Reporting Station
Clear Clear  
Wind Chill: 14°   Ceiling: Unl
Heat Index: 14°   Visibility: 10mi
Dew Point:   Wind: 22mph
Humidity: 59%   Direction: 200°SSW
Pressure: 29.95"   Gusts: 29mph
Location:  32.43°N, 99.83°W
Report Text: KDYS 290558Z AUTO 20019G25KT 10SM CLR 14/06 A2995 RMK AO2 PK WND 20028/43 SLP120 T01380058 10181 21026 402270081 57011 $
Loading
Personal Weather Stations






























Interactive Weather Map New forecast layout! Learn more

10-Day Weather Forecast

Advertisements
Track Severe Weather on mobile